createdAt,value
2022-08-16T00:02:27.848Z,84.83
2022-08-16T00:04:55.213Z,84.98
2022-08-16T00:07:29.331Z,84.97
2022-08-16T00:09:59.725Z,85.54
2022-08-16T00:12:30.337Z,85.85
2022-08-16T00:14:59.659Z,86.04
2022-08-16T00:17:27.161Z,86.29
2022-08-16T00:19:55.957Z,85.91
2022-08-16T00:22:25.344Z,86.01
2022-08-16T00:24:54.613Z,85.76
2022-08-16T00:27:22.795Z,86.15
2022-08-16T00:30:08.691Z,86.07
2022-08-16T00:32:38.475Z,85.79
2022-08-16T00:35:14.957Z,86.04
2022-08-16T00:37:56.239Z,86.24
2022-08-16T00:40:43.867Z,86.58
2022-08-16T00:43:23.364Z,86.39
2022-08-16T00:46:22.239Z,86.29
2022-08-16T00:49:05.837Z,86.12
2022-08-16T00:51:32.895Z,86.53
2022-08-16T00:54:01.163Z,86.67
2022-08-16T00:56:55.479Z,86.66
2022-08-16T00:59:23.835Z,86.57
2022-08-16T01:01:51.813Z,87.14
2022-08-16T01:04:29.497Z,86.99
2022-08-16T01:07:01.834Z,86.13
2022-08-16T01:09:34.315Z,85.80
2022-08-16T01:12:08.376Z,86.05
2022-08-16T01:14:41.201Z,86.61
2022-08-16T01:17:12.127Z,86.59
2022-08-16T01:19:53.126Z,86.28
2022-08-16T01:22:52.739Z,86.92
2022-08-16T01:25:33.831Z,86.22
2022-08-16T01:28:03.847Z,87.21
2022-08-16T01:30:39.882Z,87.00
2022-08-16T01:33:16.685Z,87.01
2022-08-16T01:35:46.809Z,87.00
2022-08-16T01:38:28.424Z,86.67
2022-08-16T01:41:02.573Z,87.15
2022-08-16T01:43:31.676Z,87.54
2022-08-16T01:46:30.065Z,87.35
2022-08-16T01:48:57.932Z,87.87
2022-08-16T01:51:26.160Z,88.57
2022-08-16T01:53:55.294Z,87.60
2022-08-16T01:56:25.323Z,87.95
2022-08-16T01:58:57.118Z,88.69
2022-08-16T02:01:25.929Z,88.43
2022-08-16T02:03:58.704Z,88.57
2022-08-16T02:06:38.706Z,88.85
2022-08-16T02:09:11.689Z,88.87
2022-08-16T02:11:48.110Z,89.49
2022-08-16T02:14:22.587Z,89.75
2022-08-16T02:16:54.631Z,89.66
2022-08-16T02:19:24.376Z,89.97
2022-08-16T02:22:35.060Z,89.49
2022-08-16T02:25:00.640Z,90.13
2022-08-16T02:27:27.511Z,89.88
2022-08-16T02:30:05.281Z,90.02
2022-08-16T02:32:49.017Z,90.25
2022-08-16T02:35:17.566Z,89.91
2022-08-16T02:37:52.297Z,90.50
2022-08-16T02:40:21.652Z,90.60
2022-08-16T02:42:50.713Z,91.00
2022-08-16T02:45:20.048Z,90.83
2022-08-16T02:48:00.214Z,90.77
2022-08-16T02:50:53.545Z,90.76
2022-08-16T02:53:18.224Z,91.53
2022-08-16T02:55:50.708Z,90.65
2022-08-16T02:58:18.586Z,90.21
2022-08-16T03:00:50.167Z,90.81
2022-08-16T03:03:18.118Z,90.02
2022-08-16T03:05:49.972Z,90.13
2022-08-16T03:08:51.029Z,90.21
2022-08-16T03:11:16.730Z,89.74
2022-08-16T03:13:56.400Z,89.20
2022-08-16T03:16:38.250Z,89.26
2022-08-16T03:19:07.385Z,88.56
2022-08-16T03:21:38.275Z,88.69
2022-08-16T03:24:27.743Z,89.29
2022-08-16T03:26:59.090Z,89.32
2022-08-16T03:29:32.197Z,88.48
2022-08-16T03:32:01.195Z,88.56
2022-08-16T03:34:29.644Z,87.45
2022-08-16T03:36:57.571Z,87.80
2022-08-16T03:39:24.524Z,87.52
2022-08-16T03:41:59.750Z,86.65
2022-08-16T03:44:40.803Z,87.36
2022-08-16T03:47:11.916Z,86.76
2022-08-16T03:49:38.920Z,87.61
2022-08-16T03:52:06.723Z,86.47
2022-08-16T03:54:35.568Z,86.67
2022-08-16T03:57:05.141Z,86.03
2022-08-16T03:59:32.541Z,87.26
2022-08-16T04:02:00.886Z,87.53
2022-08-16T04:04:33.159Z,87.06
2022-08-16T04:07:02.681Z,87.16
2022-08-16T04:09:35.223Z,86.57
2022-08-16T04:12:11.204Z,86.86
2022-08-16T04:14:53.409Z,86.84
2022-08-16T04:17:21.281Z,86.97
2022-08-16T04:19:51.692Z,87.55
2022-08-16T04:22:27.356Z,87.25
2022-08-16T04:24:55.525Z,87.79
2022-08-16T04:27:29.037Z,87.96
2022-08-16T04:30:02.703Z,87.49
2022-08-16T04:32:30.880Z,87.82
2022-08-16T04:34:57.712Z,87.27
2022-08-16T04:37:24.543Z,87.66
2022-08-16T04:39:55.404Z,88.33
2022-08-16T04:42:26.328Z,87.48
2022-08-16T04:44:57.779Z,87.61
2022-08-16T04:47:33.308Z,87.79
2022-08-16T04:50:15.661Z,87.90
2022-08-16T04:52:46.913Z,87.54
2022-08-16T04:55:20.146Z,87.56
2022-08-16T04:57:53.775Z,87.44
2022-08-16T05:00:32.308Z,87.33
2022-08-16T05:03:11.342Z,86.89
2022-08-16T05:05:45.531Z,87.15
2022-08-16T05:08:29.164Z,87.43
2022-08-16T05:11:05.212Z,87.58
2022-08-16T05:13:41.198Z,87.75
2022-08-16T05:16:19.764Z,88.22
2022-08-16T05:18:52.975Z,88.16
2022-08-16T05:21:21.593Z,87.66
2022-08-16T05:23:58.719Z,87.48
2022-08-16T05:26:29.085Z,87.29
2022-08-16T05:29:03.708Z,87.11
2022-08-16T05:31:31.696Z,87.53
2022-08-16T05:34:00.428Z,86.70
2022-08-16T05:36:34.358Z,87.01
2022-08-16T05:39:09.644Z,87.55
2022-08-16T05:41:45.655Z,87.43
2022-08-16T05:44:22.470Z,86.90
2022-08-16T05:46:53.163Z,86.76
2022-08-16T05:49:22.501Z,86.75
2022-08-16T05:51:50.246Z,86.74
2022-08-16T05:54:25.066Z,87.01
2022-08-16T05:56:53.637Z,87.55
2022-08-16T05:59:22.115Z,87.09
2022-08-16T06:01:50.832Z,87.01
2022-08-16T06:04:35.568Z,87.04
2022-08-16T06:07:09.162Z,86.78
2022-08-16T06:09:51.085Z,87.17
2022-08-16T06:12:27.005Z,87.50
2022-08-16T06:15:01.936Z,87.15
2022-08-16T06:17:42.929Z,86.95
2022-08-16T06:20:14.975Z,87.26
2022-08-16T06:22:47.878Z,87.37
2022-08-16T06:25:35.456Z,88.46
2022-08-16T06:28:08.804Z,88.50
2022-08-16T06:30:36.532Z,87.78
2022-08-16T06:33:12.402Z,88.16
2022-08-16T06:35:41.593Z,89.08
2022-08-16T06:38:33.638Z,88.76
2022-08-16T06:40:56.065Z,89.73
2022-08-16T06:43:27.589Z,90.29
2022-08-16T06:45:55.600Z,90.52
2022-08-16T06:48:32.674Z,90.22
2022-08-16T06:51:00.155Z,90.35
2022-08-16T06:53:27.084Z,91.09
2022-08-16T06:55:58.890Z,91.13
2022-08-16T06:58:31.974Z,91.23
2022-08-16T07:01:01.301Z,91.38
2022-08-16T07:03:32.409Z,91.51
2022-08-16T07:06:00.132Z,90.43
2022-08-16T07:08:28.080Z,91.91
2022-08-16T07:10:55.657Z,92.05
2022-08-16T07:13:58.556Z,91.95
2022-08-16T07:16:15.435Z,92.59
2022-08-16T07:18:58.199Z,92.62
2022-08-16T07:21:26.435Z,93.57
2022-08-16T07:23:58.073Z,93.02
2022-08-16T07:26:33.788Z,93.33
2022-08-16T07:29:00.966Z,92.63
2022-08-16T07:31:37.787Z,92.67
2022-08-16T07:34:05.244Z,92.61
2022-08-16T07:36:37.302Z,93.43
2022-08-16T07:39:04.495Z,93.62
2022-08-16T07:41:31.372Z,93.84
2022-08-16T07:43:58.292Z,93.69
2022-08-16T07:46:38.704Z,93.51
2022-08-16T07:49:11.486Z,94.15
2022-08-16T07:51:38.791Z,94.58
2022-08-16T07:54:10.753Z,94.52
2022-08-16T07:56:39.740Z,93.89
2022-08-16T07:59:07.153Z,94.40
2022-08-16T08:01:36.393Z,94.45
2022-08-16T08:04:06.201Z,94.87
2022-08-16T08:06:40.785Z,94.95
2022-08-16T08:09:07.874Z,95.09
2022-08-16T08:11:34.871Z,95.45
2022-08-16T08:14:03.383Z,95.46
2022-08-16T08:16:32.258Z,94.16
2022-08-16T08:19:02.897Z,94.50
2022-08-16T08:21:58.829Z,93.84
2022-08-16T08:24:18.764Z,91.89
2022-08-16T08:26:50.239Z,91.29
2022-08-16T08:29:22.934Z,91.32
2022-08-16T08:31:53.278Z,90.42
2022-08-16T08:34:22.234Z,91.29
2022-08-16T08:36:54.549Z,90.84
2022-08-16T08:39:22.698Z,90.44
2022-08-16T08:41:51.780Z,91.32
2022-08-16T08:44:29.465Z,91.94
2022-08-16T08:47:01.520Z,92.75
2022-08-16T08:49:50.569Z,93.28
2022-08-16T08:52:35.219Z,93.96
2022-08-16T08:55:10.527Z,94.93
2022-08-16T08:57:41.009Z,95.13
2022-08-16T09:00:13.103Z,94.75
2022-08-16T09:02:45.643Z,94.71
2022-08-16T09:05:20.657Z,95.01
2022-08-16T09:08:00.694Z,94.52
2022-08-16T09:10:31.168Z,94.70
2022-08-16T09:12:59.339Z,94.16
2022-08-16T09:15:33.018Z,94.53
2022-08-16T09:18:26.204Z,95.67
2022-08-16T09:21:00.152Z,95.84
2022-08-16T09:23:31.243Z,96.13
2022-08-16T09:26:45.574Z,95.74
2022-08-16T09:29:15.049Z,95.10
2022-08-16T09:31:41.387Z,95.20
2022-08-16T09:34:09.474Z,95.36
2022-08-16T09:36:45.030Z,95.00
2022-08-16T09:39:18.160Z,95.86
2022-08-16T09:41:53.187Z,95.00
2022-08-16T09:45:12.702Z,94.03
2022-08-16T09:47:10.414Z,94.29
2022-08-16T09:49:40.767Z,93.64
2022-08-16T09:52:09.443Z,92.45
2022-08-16T09:54:37.737Z,92.09
2022-08-16T09:57:05.076Z,91.05
2022-08-16T09:59:38.584Z,90.08
2022-08-16T10:02:22.974Z,90.53
2022-08-16T10:04:55.532Z,89.80
2022-08-16T10:07:24.190Z,90.00
2022-08-16T10:09:54.881Z,90.08
2022-08-16T10:12:55.595Z,91.35
2022-08-16T10:15:23.033Z,92.32
2022-08-16T10:18:00.911Z,93.40
2022-08-16T10:20:31.835Z,93.08
2022-08-16T10:23:03.526Z,93.35
2022-08-16T10:27:16.311Z,93.19
2022-08-16T10:28:29.273Z,93.89
2022-08-16T10:31:00.705Z,94.14
2022-08-16T10:33:33.508Z,94.78
2022-08-16T10:36:04.033Z,94.91
2022-08-16T10:38:33.148Z,94.76
2022-08-16T10:41:04.042Z,95.76
2022-08-16T10:43:31.435Z,96.12
2022-08-16T10:46:00.807Z,96.46
2022-08-16T10:48:29.179Z,97.17
2022-08-16T10:51:00.810Z,97.50
2022-08-16T10:53:32.711Z,97.33
2022-08-16T10:56:52.856Z,98.36
2022-08-16T10:59:29.591Z,97.88
2022-08-16T11:02:21.786Z,96.66
2022-08-16T11:11:04.832Z,93.52
2022-08-16T11:12:53.939Z,91.69
2022-08-16T11:15:21.724Z,89.76
2022-08-16T11:19:03.501Z,89.88
2022-08-16T11:20:42.750Z,89.58
2022-08-16T11:23:16.983Z,90.43
2022-08-16T11:31:20.614Z,92.04
2022-08-16T11:33:52.809Z,93.17
2022-08-16T11:36:27.844Z,93.47
2022-08-16T11:38:57.729Z,93.57
2022-08-16T11:41:25.848Z,93.60
2022-08-16T11:43:56.287Z,93.48
2022-08-16T11:46:44.955Z,93.88
2022-08-16T11:49:13.720Z,93.56
2022-08-16T11:51:44.227Z,92.97
2022-08-16T11:54:21.722Z,92.26
2022-08-16T11:56:52.386Z,92.14
2022-08-16T11:59:28.481Z,91.86
2022-08-16T12:02:04.317Z,90.64
2022-08-16T12:04:46.384Z,89.95
2022-08-16T12:07:19.635Z,87.57
2022-08-16T12:09:50.553Z,85.21
2022-08-16T12:12:20.937Z,84.58
2022-08-16T12:14:59.444Z,83.78
2022-08-16T12:17:31.853Z,83.48
2022-08-16T12:19:59.592Z,81.36
2022-08-16T12:22:27.608Z,80.44
2022-08-16T12:24:54.492Z,80.46
2022-08-16T12:27:24.284Z,79.39
2022-08-16T12:29:54.669Z,78.39
2022-08-16T12:32:26.765Z,78.13
2022-08-16T12:35:08.783Z,77.74
2022-08-16T12:37:36.453Z,76.92
2022-08-16T12:40:07.328Z,76.96
2022-08-16T12:42:53.291Z,77.08
2022-08-16T12:45:21.733Z,76.55
2022-08-16T12:48:31.721Z,75.92
2022-08-16T12:50:54.842Z,75.62
2022-08-16T12:53:24.789Z,74.68
2022-08-16T12:55:51.852Z,73.15
2022-08-16T12:58:48.583Z,73.91
2022-08-16T13:01:08.498Z,73.80
2022-08-16T13:03:40.593Z,74.69
2022-08-16T13:06:08.273Z,74.24
2022-08-16T13:08:35.215Z,73.79
2022-08-16T13:11:04.740Z,73.32
2022-08-16T13:13:35.668Z,73.28
2022-08-16T13:16:15.239Z,73.82
2022-08-16T13:18:52.430Z,74.32
2022-08-16T13:21:23.615Z,74.28
2022-08-16T13:23:55.312Z,73.27
2022-08-16T13:26:24.004Z,73.41
2022-08-16T13:28:51.060Z,73.32
2022-08-16T13:31:18.108Z,72.85
2022-08-16T13:33:45.370Z,73.13
2022-08-16T13:36:38.707Z,72.64
2022-08-16T13:39:02.453Z,71.99
2022-08-16T13:41:31.846Z,72.87
2022-08-16T13:44:00.741Z,73.16
2022-08-16T13:46:29.047Z,73.88
2022-08-16T13:48:57.520Z,74.08
2022-08-16T13:51:24.621Z,74.21
2022-08-16T13:53:59.921Z,73.20
2022-08-16T13:56:37.708Z,73.32
2022-08-16T13:59:20.589Z,73.36
2022-08-16T14:01:55.154Z,72.78
2022-08-16T14:04:27.643Z,72.83
2022-08-16T14:06:58.405Z,73.42
2022-08-16T14:09:27.221Z,73.29
2022-08-16T14:11:56.525Z,73.65
2022-08-16T14:14:28.609Z,72.71
2022-08-16T14:17:01.262Z,72.56
2022-08-16T14:19:29.106Z,72.30
2022-08-16T14:22:14.380Z,72.04
2022-08-16T14:24:45.333Z,71.71
2022-08-16T14:27:15.729Z,71.00
2022-08-16T14:29:44.283Z,71.11
2022-08-16T14:32:13.225Z,70.79
2022-08-16T14:34:55.740Z,71.24
2022-08-16T14:37:23.119Z,71.51
2022-08-16T14:39:50.803Z,71.69
2022-08-16T14:42:21.606Z,71.94
2022-08-16T14:44:48.962Z,72.73
2022-08-16T14:47:17.648Z,72.76
2022-08-16T14:49:44.803Z,73.44
2022-08-16T14:52:15.924Z,73.56
2022-08-16T14:54:46.128Z,73.57
2022-08-16T14:57:14.775Z,72.46
2022-08-16T14:59:45.439Z,72.77
2022-08-16T15:02:27.628Z,72.73
2022-08-16T15:05:01.973Z,72.32
2022-08-16T15:07:34.467Z,72.64
2022-08-16T15:10:03.430Z,72.73
2022-08-16T15:12:33.527Z,72.56
2022-08-16T15:15:04.425Z,72.44
2022-08-16T15:17:56.253Z,71.27
2022-08-16T15:20:26.889Z,72.40
2022-08-16T15:22:56.287Z,72.08
2022-08-16T15:25:35.686Z,72.46
2022-08-16T15:28:23.898Z,72.09
2022-08-16T15:31:00.807Z,71.96
2022-08-16T15:33:32.317Z,71.79
2022-08-16T15:36:00.107Z,71.52
2022-08-16T15:38:56.943Z,71.74
2022-08-16T15:41:54.922Z,71.77
2022-08-16T15:44:26.586Z,71.86
2022-08-16T15:46:58.701Z,71.48
2022-08-16T15:49:38.039Z,71.58
2022-08-16T15:52:20.530Z,71.63
2022-08-16T15:54:55.246Z,71.93
2022-08-16T15:57:24.621Z,71.12
2022-08-16T15:59:52.667Z,70.21
2022-08-16T16:02:29.227Z,70.81
2022-08-16T16:05:02.520Z,70.25
2022-08-16T16:07:33.473Z,69.91
2022-08-16T16:10:13.539Z,71.23
2022-08-16T16:12:53.746Z,70.40
2022-08-16T16:15:25.478Z,70.08
2022-08-16T16:17:53.927Z,70.60
2022-08-16T16:20:24.221Z,70.79
2022-08-16T16:22:51.912Z,70.32
2022-08-16T16:25:19.484Z,69.93
2022-08-16T16:27:55.316Z,68.99
2022-08-16T16:30:37.948Z,68.44
2022-08-16T16:33:21.159Z,69.79
2022-08-16T16:35:56.718Z,70.19
2022-08-16T16:38:28.969Z,70.24
2022-08-16T16:41:00.075Z,70.24
2022-08-16T16:43:31.824Z,70.18
2022-08-16T16:46:00.657Z,69.97
2022-08-16T16:48:34.498Z,69.31
2022-08-16T16:51:09.145Z,69.14
2022-08-16T16:53:41.428Z,69.85
2022-08-16T16:56:20.314Z,68.42
2022-08-16T16:58:57.163Z,67.62
2022-08-16T17:01:35.014Z,68.70
2022-08-16T17:04:19.851Z,69.36
2022-08-16T17:06:53.377Z,69.58
2022-08-16T17:09:23.951Z,69.14
2022-08-16T17:11:55.300Z,68.73
2022-08-16T17:14:33.888Z,68.80
2022-08-16T17:17:04.340Z,68.62
2022-08-16T17:19:32.111Z,69.52
2022-08-16T17:22:00.459Z,68.89
2022-08-16T17:24:39.502Z,68.43
2022-08-16T17:27:08.428Z,68.88
2022-08-16T17:29:45.925Z,68.46
2022-08-16T17:32:44.722Z,68.90
2022-08-16T17:35:07.158Z,68.93
2022-08-16T17:37:48.777Z,68.87
2022-08-16T17:40:41.626Z,68.98
2022-08-16T17:43:16.690Z,69.11
2022-08-16T17:45:43.608Z,68.97
2022-08-16T17:48:11.272Z,69.07
2022-08-16T17:50:38.916Z,68.89
2022-08-16T17:53:07.000Z,69.56
2022-08-16T17:55:37.024Z,70.18
2022-08-16T17:58:09.864Z,70.13
2022-08-16T18:00:51.888Z,70.47
2022-08-16T18:04:06.996Z,70.18
2022-08-16T18:06:13.305Z,71.19
2022-08-16T18:08:42.652Z,71.01
2022-08-16T18:11:11.971Z,71.17
2022-08-16T18:13:43.261Z,70.88
2022-08-16T18:16:11.487Z,71.13
2022-08-16T18:18:38.584Z,71.62
2022-08-16T18:21:24.134Z,71.46
2022-08-16T18:23:51.470Z,71.64
2022-08-16T18:26:18.494Z,71.69
2022-08-16T18:28:45.333Z,71.82
2022-08-16T18:31:12.314Z,72.65
2022-08-16T18:33:43.310Z,72.46
2022-08-16T18:36:20.618Z,72.61
2022-08-16T18:38:49.605Z,72.92
2022-08-16T18:41:17.241Z,73.52
2022-08-16T18:44:22.751Z,73.83
2022-08-16T18:46:31.094Z,74.30
2022-08-16T18:48:57.932Z,74.29
2022-08-16T18:51:25.826Z,74.26
2022-08-16T18:53:53.915Z,74.72
2022-08-16T18:56:21.621Z,74.27
2022-08-16T18:58:49.151Z,74.73
2022-08-16T19:01:19.268Z,75.19
2022-08-16T19:03:47.388Z,74.74
2022-08-16T19:06:15.703Z,75.23
2022-08-16T19:08:44.117Z,75.54
2022-08-16T19:11:14.145Z,75.52
2022-08-16T19:13:44.468Z,75.20
2022-08-16T19:16:12.313Z,75.48
2022-08-16T19:18:39.251Z,75.86
2022-08-16T19:21:07.354Z,76.50
2022-08-16T19:23:35.660Z,76.62
2022-08-16T19:26:10.847Z,76.45
2022-08-16T19:28:50.950Z,77.06
2022-08-16T19:31:31.964Z,76.73
2022-08-16T19:33:59.268Z,77.12
2022-08-16T19:36:35.746Z,77.80
2022-08-16T19:39:09.519Z,78.01
2022-08-16T19:41:43.550Z,77.89
2022-08-16T19:44:10.652Z,78.05
2022-08-16T19:46:41.823Z,78.79
2022-08-16T19:49:08.716Z,78.98
2022-08-16T19:51:35.705Z,79.03
2022-08-16T19:54:05.191Z,79.68
2022-08-16T19:56:32.281Z,79.57
2022-08-16T20:01:46.502Z,79.76
2022-08-16T20:04:13.827Z,80.39
2022-08-16T20:06:41.854Z,80.47
2022-08-16T20:09:10.534Z,81.06
2022-08-16T20:11:46.073Z,80.65
2022-08-16T20:14:23.985Z,81.09
2022-08-16T20:16:52.272Z,81.47
2022-08-16T20:19:19.757Z,81.21
2022-08-16T20:21:46.617Z,80.70
2022-08-16T20:24:32.741Z,81.42
2022-08-16T20:27:00.232Z,81.59
2022-08-16T20:29:28.081Z,82.03
2022-08-16T20:31:56.252Z,82.09
2022-08-16T20:34:23.231Z,82.30
2022-08-16T20:36:50.074Z,81.64
2022-08-16T20:39:17.135Z,81.21
2022-08-16T20:41:44.402Z,81.02
2022-08-16T20:44:12.849Z,80.80
2022-08-16T20:46:40.333Z,80.91
2022-08-16T20:49:09.233Z,81.66
2022-08-16T20:51:49.727Z,81.64
2022-08-16T20:54:18.152Z,81.62
2022-08-16T20:56:44.992Z,81.68
2022-08-16T20:59:11.848Z,81.93
2022-08-16T21:01:45.852Z,82.24
2022-08-16T21:04:14.372Z,82.43
2022-08-16T21:06:41.645Z,82.37
2022-08-16T21:09:20.200Z,82.37
2022-08-16T21:11:47.234Z,82.57
2022-08-16T21:14:14.097Z,82.96
2022-08-16T21:16:41.592Z,82.43
2022-08-16T21:19:08.608Z,81.82
2022-08-16T21:21:35.466Z,81.59
2022-08-16T21:24:02.434Z,81.89
2022-08-16T21:26:29.719Z,82.48
2022-08-16T21:28:56.761Z,81.97
2022-08-16T21:31:24.802Z,81.85
2022-08-16T21:33:55.714Z,81.92
2022-08-16T21:36:34.809Z,81.81
2022-08-16T21:39:02.400Z,81.98
2022-08-16T21:41:29.308Z,81.52
2022-08-16T21:43:56.136Z,81.11
2022-08-16T21:46:23.037Z,81.53
2022-08-16T21:48:49.865Z,81.00
2022-08-16T21:51:16.716Z,80.97
2022-08-16T21:53:44.527Z,80.89
2022-08-16T21:56:16.464Z,81.50
2022-08-16T21:58:52.455Z,81.02
2022-08-16T22:01:23.242Z,80.58
2022-08-16T22:04:09.536Z,80.14
2022-08-16T22:06:39.173Z,79.95
2022-08-16T22:09:07.364Z,79.22
2022-08-16T22:11:34.580Z,79.24
2022-08-16T22:14:01.784Z,78.88
2022-08-16T22:16:33.903Z,79.71
2022-08-16T22:19:01.654Z,79.63
2022-08-16T22:21:28.750Z,79.38
2022-08-16T22:23:57.589Z,79.52
2022-08-16T22:26:31.316Z,79.92
2022-08-16T22:29:04.699Z,80.02
2022-08-16T22:31:31.667Z,79.88
2022-08-16T22:33:58.612Z,80.57
2022-08-16T22:36:28.119Z,80.26
2022-08-16T22:39:00.530Z,80.82
2022-08-16T22:41:28.542Z,80.20
2022-08-16T22:43:56.280Z,79.76
2022-08-16T22:46:23.569Z,79.92
2022-08-16T22:48:51.077Z,79.73
2022-08-16T22:51:19.761Z,79.53
2022-08-16T22:53:46.734Z,79.53
2022-08-16T22:56:15.791Z,79.57
2022-08-16T22:58:42.927Z,79.40
2022-08-16T23:01:12.923Z,79.41
2022-08-16T23:03:41.216Z,79.53
2022-08-16T23:06:09.001Z,79.29
2022-08-16T23:08:40.267Z,79.63
2022-08-16T23:11:21.436Z,79.90
2022-08-16T23:13:56.381Z,79.81
2022-08-16T23:16:33.173Z,79.69
2022-08-16T23:19:03.409Z,79.78
2022-08-16T23:21:30.597Z,79.35
2022-08-16T23:23:57.502Z,79.57
2022-08-16T23:26:44.139Z,79.71
2022-08-16T23:29:22.045Z,78.88
2022-08-16T23:31:57.341Z,79.31
2022-08-16T23:34:25.247Z,79.09
2022-08-16T23:36:52.219Z,79.26
2022-08-16T23:39:19.138Z,79.46
2022-08-16T23:41:46.030Z,79.45
2022-08-16T23:44:44.188Z,80.24
2022-08-16T23:46:59.878Z,79.54
2022-08-16T23:50:01.990Z,79.34
2022-08-16T23:52:13.611Z,79.55
2022-08-16T23:54:40.514Z,79.69
2022-08-16T23:57:08.454Z,79.57
2022-08-16T23:59:48.654Z,79.69
